createdAt,value
2019-01-11T00:00:02.357Z,14.60
2019-01-11T00:05:21.314Z,10.90
2019-01-11T00:10:38.357Z,12.27
2019-01-11T00:16:09.143Z,14.17
2019-01-11T00:21:30.056Z,13.87
2019-01-11T00:26:49.733Z,15.93
2019-01-11T00:32:21.369Z,13.73
2019-01-11T00:37:58.158Z,13.57
2019-01-11T00:43:03.818Z,13.07
2019-01-11T00:48:24.776Z,12.53
2019-01-11T00:53:43.953Z,11.03
2019-01-11T00:58:59.601Z,10.50
2019-01-11T01:04:17.747Z,9.70
2019-01-11T01:09:34.596Z,9.37
2019-01-11T01:14:52.363Z,9.37
2019-01-11T01:20:12.190Z,7.67
2019-01-11T01:25:31.491Z,6.47
2019-01-11T01:30:54.019Z,5.27
2019-01-11T01:36:42.278Z,4.80
2019-01-11T01:41:40.257Z,6.50
2019-01-11T01:47:02.157Z,7.20
2019-01-11T01:52:24.494Z,3.50
2019-01-11T01:57:38.317Z,5.40
2019-01-11T02:03:01.157Z,3.90
2019-01-11T02:08:24.181Z,4.33
2019-01-11T02:13:46.936Z,4.13
2019-01-11T02:19:09.699Z,3.00
2019-01-11T02:24:32.457Z,3.93
2019-01-11T02:29:55.213Z,3.50
2019-01-11T02:35:10.701Z,4.60
2019-01-11T02:40:28.381Z,4.27
2019-01-11T02:45:46.924Z,4.43
2019-01-11T02:51:03.161Z,5.03
2019-01-11T02:56:18.807Z,5.87
2019-01-11T03:01:34.274Z,4.70
2019-01-11T03:06:50.214Z,5.83
2019-01-11T03:12:07.065Z,7.63
2019-01-11T03:17:22.338Z,7.23
2019-01-11T03:22:37.826Z,7.77
2019-01-11T03:27:53.686Z,7.80
2019-01-11T03:33:09.562Z,9.33
2019-01-11T03:38:25.058Z,8.03
2019-01-11T03:43:40.777Z,8.10
2019-01-11T03:48:56.417Z,8.30
2019-01-11T03:54:12.141Z,8.17
2019-01-11T03:59:27.487Z,9.13
2019-01-11T04:04:44.266Z,8.00
2019-01-11T04:09:59.889Z,9.03
2019-01-11T04:15:15.906Z,8.60
2019-01-11T04:20:32.008Z,7.20
2019-01-11T04:25:47.429Z,7.73
2019-01-11T04:31:03.156Z,7.97
2019-01-11T04:36:18.501Z,8.07
2019-01-11T04:41:34.092Z,8.70
2019-01-11T04:46:52.217Z,9.30
2019-01-11T04:52:08.373Z,8.37
2019-01-11T04:57:23.649Z,8.23
2019-01-11T05:02:39.313Z,6.50
2019-01-11T05:07:55.406Z,7.20
2019-01-11T05:18:39.915Z,7.23
2019-01-11T05:23:56.169Z,7.03
2019-01-11T05:29:12.334Z,7.50
2019-01-11T05:34:27.884Z,6.43
2019-01-11T05:39:43.893Z,6.90
2019-01-11T05:44:59.875Z,7.87
2019-01-11T05:50:23.894Z,6.73
2019-01-11T05:55:54.813Z,7.83
2019-01-11T06:01:10.609Z,8.20
2019-01-11T06:06:28.089Z,8.10
2019-01-11T06:11:44.549Z,8.23
2019-01-11T06:17:00.541Z,9.23
2019-01-11T06:22:16.780Z,9.07
2019-01-11T06:27:32.457Z,11.53
2019-01-11T06:32:48.318Z,11.10
2019-01-11T06:38:04.633Z,12.07
2019-01-11T06:43:20.933Z,12.53
2019-01-11T06:48:44.160Z,12.37
2019-01-11T06:54:06.750Z,12.70
2019-01-11T06:59:25.005Z,12.67
2019-01-11T07:04:40.908Z,14.70
2019-01-11T07:09:56.585Z,12.33
2019-01-11T07:15:12.808Z,14.10
2019-01-11T07:20:28.546Z,13.60
2019-01-11T07:25:44.209Z,13.73
2019-01-11T07:31:01.518Z,13.33
2019-01-11T07:36:36.785Z,12.47
2019-01-11T07:41:52.596Z,12.53
2019-01-11T07:47:08.361Z,11.77
2019-01-11T07:52:23.933Z,13.53
2019-01-11T07:57:39.642Z,15.13
2019-01-11T08:02:55.373Z,14.10
2019-01-11T08:08:11.489Z,15.00
2019-01-11T08:13:27.121Z,15.73
2019-01-11T08:18:42.413Z,16.23
2019-01-11T08:23:58.290Z,16.20
2019-01-11T08:29:13.616Z,17.97
2019-01-11T08:34:30.693Z,14.87
2019-01-11T08:39:46.710Z,14.60
2019-01-11T08:45:02.122Z,15.70
2019-01-11T08:50:17.557Z,17.37
2019-01-11T08:55:33.111Z,18.27
2019-01-11T09:00:49.009Z,17.70
2019-01-11T09:06:04.521Z,17.03
2019-01-11T09:11:20.533Z,18.77
2019-01-11T09:16:36.442Z,20.50
2019-01-11T09:21:52.714Z,19.03
2019-01-11T09:27:08.657Z,20.87
2019-01-11T09:32:24.433Z,21.43
2019-01-11T09:37:40.181Z,24.70
2019-01-11T09:42:56.848Z,24.50
2019-01-11T09:48:12.867Z,22.80
2019-01-11T09:53:28.509Z,22.73
2019-01-11T09:58:43.837Z,25.63
2019-01-11T10:03:59.981Z,27.03
2019-01-11T10:09:15.340Z,29.90
2019-01-11T10:14:31.698Z,27.97
2019-01-11T10:19:47.305Z,26.13
2019-01-11T10:25:03.097Z,28.27
2019-01-11T10:30:19.101Z,39.13
2019-01-11T10:35:35.157Z,36.83
2019-01-11T10:51:58.509Z,45.83
2019-01-11T10:57:14.929Z,43.30
2019-01-11T11:02:30.330Z,45.67
2019-01-11T11:07:45.789Z,45.20
2019-01-11T11:13:01.009Z,49.97
2019-01-11T11:18:16.440Z,45.70
2019-01-11T11:23:32.714Z,48.90
2019-01-11T11:28:48.641Z,53.73
2019-01-11T11:34:04.128Z,51.67
2019-01-11T11:39:20.689Z,52.93
2019-01-11T11:44:36.089Z,53.17
2019-01-11T11:49:51.405Z,57.43
2019-01-11T11:55:06.972Z,51.13
2019-01-11T12:00:23.074Z,60.20
2019-01-11T12:05:39.177Z,59.53
2019-01-11T12:10:55.301Z,62.80
2019-01-11T12:16:11.008Z,71.30
2019-01-11T12:21:27.503Z,55.30
2019-01-11T12:26:42.997Z,58.20
2019-01-11T12:31:58.464Z,58.03
2019-01-11T12:37:13.861Z,62.67
2019-01-11T12:42:30.807Z,55.20
2019-01-11T12:47:49.681Z,62.00
2019-01-11T12:53:07.552Z,57.80
2019-01-11T12:58:23.597Z,54.10
2019-01-11T13:09:04.209Z,50.13
2019-01-11T13:14:30.449Z,52.87
2019-01-11T13:25:10.057Z,42.10
2019-01-11T13:30:35.871Z,41.60
2019-01-11T13:35:47.238Z,40.93
2019-01-11T13:41:04.417Z,37.87
2019-01-11T13:46:23.462Z,35.23
2019-01-11T13:51:42.932Z,36.17
2019-01-11T13:57:00.449Z,34.27
2019-01-11T14:02:16.397Z,29.27
2019-01-11T14:07:33.766Z,28.87
2019-01-11T14:12:57.618Z,25.43
2019-01-11T14:18:25.618Z,16.10
2019-01-11T14:40:30.090Z,11.10
2019-01-11T14:45:55.237Z,8.17
2019-01-11T14:51:11.909Z,11.63
2019-01-11T14:56:30.066Z,8.77
2019-01-11T15:01:50.826Z,10.13
2019-01-11T15:07:07.114Z,7.07
2019-01-11T15:12:32.173Z,7.83
2019-01-11T15:17:49.815Z,7.00
2019-01-11T15:23:06.006Z,7.07
2019-01-11T15:28:21.986Z,7.90
2019-01-11T15:33:38.081Z,10.07
2019-01-11T15:38:53.776Z,7.03
2019-01-11T15:44:12.218Z,6.23
2019-01-11T15:49:30.435Z,4.73
2019-01-11T15:54:54.189Z,6.97
2019-01-11T16:00:10.466Z,3.30
2019-01-11T16:05:27.265Z,9.07
2019-01-11T16:10:46.230Z,6.37
2019-01-11T16:21:25.706Z,8.20
2019-01-11T16:26:43.450Z,5.80
2019-01-11T16:32:01.997Z,6.97
2019-01-11T16:37:21.537Z,6.60
2019-01-11T16:42:38.804Z,10.23
2019-01-11T16:47:55.757Z,6.90
2019-01-11T16:53:12.200Z,9.17
2019-01-11T16:58:30.446Z,8.73
2019-01-11T17:03:47.499Z,7.07
2019-01-11T17:09:03.940Z,11.23
2019-01-11T17:14:19.988Z,7.43
2019-01-11T17:19:35.654Z,7.10
2019-01-11T17:24:51.322Z,8.07
2019-01-11T17:30:08.777Z,7.77
2019-01-11T17:35:27.626Z,6.83
2019-01-11T17:40:44.034Z,4.70
2019-01-11T17:45:59.858Z,5.30
2019-01-11T17:51:18.174Z,7.57
2019-01-11T17:57:03.601Z,7.40
2019-01-11T18:02:05.832Z,7.57
2019-01-11T18:07:29.937Z,8.83
2019-01-11T18:12:48.146Z,6.20
2019-01-11T18:18:11.611Z,10.43
2019-01-11T18:23:35.958Z,12.03
2019-01-11T18:28:59.797Z,7.83
2019-01-11T18:34:21.493Z,8.23
2019-01-11T18:39:59.542Z,6.47
2019-01-11T18:45:16.207Z,8.70
2019-01-11T18:50:39.109Z,8.53
2019-01-11T18:56:05.218Z,7.83
2019-01-11T19:01:20.013Z,13.93
2019-01-11T19:06:39.385Z,8.30
2019-01-11T19:11:54.909Z,7.20
2019-01-11T19:17:10.318Z,7.30
2019-01-11T19:22:27.374Z,6.70
2019-01-11T19:27:43.294Z,7.60
2019-01-11T19:32:59.519Z,7.97
2019-01-11T19:38:15.674Z,6.57
2019-01-11T19:43:31.863Z,11.57
2019-01-11T19:48:47.634Z,6.67
2019-01-11T19:54:03.335Z,6.63
2019-01-11T19:59:19.425Z,7.93
2019-01-11T20:04:35.761Z,7.57
2019-01-11T20:09:51.363Z,7.57
2019-01-11T20:15:09.884Z,7.07
2019-01-11T20:36:33.431Z,7.10
2019-01-11T20:41:59.534Z,8.00
2019-01-11T20:47:17.039Z,6.17
2019-01-11T20:52:33.550Z,6.70
2019-01-11T20:57:52.758Z,9.43
2019-01-11T21:03:14.103Z,8.60
2019-01-11T21:08:30.418Z,7.97
2019-01-11T21:13:47.416Z,4.30
2019-01-11T21:19:03.942Z,6.80
2019-01-11T21:24:21.300Z,10.37
2019-01-11T21:29:37.315Z,6.50
2019-01-11T21:34:53.499Z,7.47
2019-01-11T21:40:10.591Z,7.63
2019-01-11T21:45:29.665Z,5.47
2019-01-11T21:50:49.307Z,4.73
2019-01-11T21:56:06.595Z,6.20
2019-01-11T22:01:47.292Z,7.37
2019-01-11T22:18:11.920Z,3.60
2019-01-11T22:23:28.529Z,5.20
2019-01-11T22:28:45.325Z,3.03
2019-01-11T22:34:03.060Z,3.37
2019-01-11T22:39:22.329Z,4.80
2019-01-11T22:44:39.546Z,5.63
2019-01-11T23:01:33.644Z,4.37
2019-01-11T23:07:17.386Z,3.47
2019-01-11T23:13:00.885Z,4.90
2019-01-11T23:18:23.996Z,3.70
2019-01-11T23:23:47.061Z,3.50
2019-01-11T23:29:09.826Z,3.20
2019-01-11T23:34:26.226Z,7.73
2019-01-11T23:39:41.845Z,3.97
2019-01-11T23:44:57.850Z,4.23
2019-01-11T23:50:13.415Z,4.37
2019-01-11T23:55:28.930Z,5.80
